sensor_id;sensor_type;location;lat;lon;timestamp;temperature;humidity
7384;DHT22;3733;47.994;8.820;2022-11-20T00:01:17;1.70;99.90
7384;DHT22;3733;47.994;8.820;2022-11-20T00:03:43;1.70;99.90
7384;DHT22;3733;47.994;8.820;2022-11-20T00:06:12;1.70;99.90
7384;DHT22;3733;47.994;8.820;2022-11-20T00:08:38;1.70;99.90
7384;DHT22;3733;47.994;8.820;2022-11-20T00:11:09;1.70;99.90
7384;DHT22;3733;47.994;8.820;2022-11-20T00:13:34;1.70;99.90
7384;DHT22;3733;47.994;8.820;2022-11-20T00:16:02;1.70;99.90
7384;DHT22;3733;47.994;8.820;2022-11-20T00:18:28;1.70;99.90
7384;DHT22;3733;47.994;8.820;2022-11-20T00:20:59;1.70;99.90
7384;DHT22;3733;47.994;8.820;2022-11-20T00:23:25;1.70;99.90
7384;DHT22;3733;47.994;8.820;2022-11-20T00:25:50;1.70;99.90
7384;DHT22;3733;47.994;8.820;2022-11-20T00:28:16;1.70;99.90
7384;DHT22;3733;47.994;8.820;2022-11-20T00:30:42;1.70;99.90
7384;DHT22;3733;47.994;8.820;2022-11-20T00:33:07;1.70;99.90
7384;DHT22;3733;47.994;8.820;2022-11-20T00:35:33;1.70;99.90
7384;DHT22;3733;47.994;8.820;2022-11-20T00:37:58;1.60;99.90
7384;DHT22;3733;47.994;8.820;2022-11-20T00:40:24;1.60;99.90
7384;DHT22;3733;47.994;8.820;2022-11-20T00:42:50;1.60;99.90
7384;DHT22;3733;47.994;8.820;2022-11-20T00:45:15;1.60;99.90
7384;DHT22;3733;47.994;8.820;2022-11-20T00:47:41;1.50;99.90
7384;DHT22;3733;47.994;8.820;2022-11-20T00:50:07;1.50;99.90
7384;DHT22;3733;47.994;8.820;2022-11-20T00:52:33;1.50;99.90
7384;DHT22;3733;47.994;8.820;2022-11-20T00:54:58;1.50;99.90
7384;DHT22;3733;47.994;8.820;2022-11-20T00:57:24;1.40;99.90
7384;DHT22;3733;47.994;8.820;2022-11-20T00:59:49;1.40;99.90
7384;DHT22;3733;47.994;8.820;2022-11-20T01:02:15;1.40;99.90
7384;DHT22;3733;47.994;8.820;2022-11-20T01:04:42;1.30;99.90
7384;DHT22;3733;47.994;8.820;2022-11-20T01:07:07;1.30;99.90
7384;DHT22;3733;47.994;8.820;2022-11-20T01:09:33;1.30;99.90
7384;DHT22;3733;47.994;8.820;2022-11-20T01:11:59;1.30;99.90
7384;DHT22;3733;47.994;8.820;2022-11-20T01:14:25;1.20;99.90
7384;DHT22;3733;47.994;8.820;2022-11-20T01:16:51;1.20;99.90
7384;DHT22;3733;47.994;8.820;2022-11-20T01:19:20;1.20;99.90
7384;DHT22;3733;47.994;8.820;2022-11-20T01:21:49;1.20;99.90
7384;DHT22;3733;47.994;8.820;2022-11-20T01:24:17;1.20;99.90
7384;DHT22;3733;47.994;8.820;2022-11-20T01:26:44;1.20;99.90
7384;DHT22;3733;47.994;8.820;2022-11-20T01:29:15;1.30;99.90
7384;DHT22;3733;47.994;8.820;2022-11-20T01:31:42;1.30;99.90
7384;DHT22;3733;47.994;8.820;2022-11-20T01:34:17;1.30;99.90
7384;DHT22;3733;47.994;8.820;2022-11-20T01:36:43;1.30;99.90
7384;DHT22;3733;47.994;8.820;2022-11-20T01:39:24;1.30;99.90
7384;DHT22;3733;47.994;8.820;2022-11-20T01:41:51;1.30;99.90
7384;DHT22;3733;47.994;8.820;2022-11-20T01:44:56;1.40;99.90
7384;DHT22;3733;47.994;8.820;2022-11-20T01:47:35;1.40;99.90
7384;DHT22;3733;47.994;8.820;2022-11-20T01:50:12;1.50;99.90
7384;DHT22;3733;47.994;8.820;2022-11-20T01:52:45;1.50;99.90
7384;DHT22;3733;47.994;8.820;2022-11-20T01:55:20;1.50;99.90
7384;DHT22;3733;47.994;8.820;2022-11-20T01:57:48;1.60;99.90
7384;DHT22;3733;47.994;8.820;2022-11-20T02:00:16;1.60;99.90
7384;DHT22;3733;47.994;8.820;2022-11-20T02:02:45;1.70;99.90
7384;DHT22;3733;47.994;8.820;2022-11-20T02:07:48;1.80;99.90
7384;DHT22;3733;47.994;8.820;2022-11-20T02:10:14;1.80;99.90
7384;DHT22;3733;47.994;8.820;2022-11-20T02:12:40;1.80;99.90
7384;DHT22;3733;47.994;8.820;2022-11-20T02:15:24;1.90;99.90
7384;DHT22;3733;47.994;8.820;2022-11-20T02:17:50;1.90;99.90
7384;DHT22;3733;47.994;8.820;2022-11-20T02:20:16;1.90;99.90
7384;DHT22;3733;47.994;8.820;2022-11-20T02:22:50;1.90;99.90
7384;DHT22;3733;47.994;8.820;2022-11-20T02:25:19;1.90;99.90
7384;DHT22;3733;47.994;8.820;2022-11-20T02:27:45;1.90;99.90
7384;DHT22;3733;47.994;8.820;2022-11-20T02:30:11;1.90;99.90
7384;DHT22;3733;47.994;8.820;2022-11-20T02:32:38;1.90;99.90
7384;DHT22;3733;47.994;8.820;2022-11-20T02:37:58;1.80;99.90
7384;DHT22;3733;47.994;8.820;2022-11-20T02:40:25;1.90;99.90
7384;DHT22;3733;47.994;8.820;2022-11-20T02:42:54;1.90;99.90
7384;DHT22;3733;47.994;8.820;2022-11-20T02:45:21;2.00;99.90
7384;DHT22;3733;47.994;8.820;2022-11-20T02:47:46;2.00;99.90
7384;DHT22;3733;47.994;8.820;2022-11-20T02:50:12;2.00;99.90
7384;DHT22;3733;47.994;8.820;2022-11-20T02:52:38;2.00;99.90
7384;DHT22;3733;47.994;8.820;2022-11-20T02:55:04;2.00;99.90
7384;DHT22;3733;47.994;8.820;2022-11-20T02:57:29;2.00;99.90
7384;DHT22;3733;47.994;8.820;2022-11-20T02:59:55;2.00;99.90
7384;DHT22;3733;47.994;8.820;2022-11-20T03:02:21;2.10;99.90
7384;DHT22;3733;47.994;8.820;2022-11-20T03:04:46;2.10;99.90
7384;DHT22;3733;47.994;8.820;2022-11-20T03:07:12;2.10;99.90
7384;DHT22;3733;47.994;8.820;2022-11-20T03:09:38;2.00;99.90
7384;DHT22;3733;47.994;8.820;2022-11-20T03:12:04;2.00;99.90
7384;DHT22;3733;47.994;8.820;2022-11-20T03:14:30;2.00;99.90
7384;DHT22;3733;47.994;8.820;2022-11-20T03:16:55;2.00;99.90
7384;DHT22;3733;47.994;8.820;2022-11-20T03:19:21;2.00;99.90
7384;DHT22;3733;47.994;8.820;2022-11-20T03:21:47;2.00;99.90
7384;DHT22;3733;47.994;8.820;2022-11-20T03:24:13;2.00;99.90
7384;DHT22;3733;47.994;8.820;2022-11-20T03:26:39;2.00;99.90
7384;DHT22;3733;47.994;8.820;2022-11-20T03:29:05;2.00;99.90
7384;DHT22;3733;47.994;8.820;2022-11-20T03:31:36;2.00;99.90
7384;DHT22;3733;47.994;8.820;2022-11-20T03:34:03;2.00;99.90
7384;DHT22;3733;47.994;8.820;2022-11-20T03:36:29;2.00;99.90
7384;DHT22;3733;47.994;8.820;2022-11-20T03:38:56;2.00;99.90
7384;DHT22;3733;47.994;8.820;2022-11-20T03:41:27;2.00;99.90
7384;DHT22;3733;47.994;8.820;2022-11-20T03:43:55;2.00;99.90
7384;DHT22;3733;47.994;8.820;2022-11-20T03:46:21;2.00;99.90
7384;DHT22;3733;47.994;8.820;2022-11-20T03:48:47;2.00;99.90
7384;DHT22;3733;47.994;8.820;2022-11-20T03:51:18;2.00;99.90
7384;DHT22;3733;47.994;8.820;2022-11-20T03:53:46;2.10;99.90
7384;DHT22;3733;47.994;8.820;2022-11-20T03:56:13;2.10;99.90
7384;DHT22;3733;47.994;8.820;2022-11-20T03:58:40;2.10;99.90
7384;DHT22;3733;47.994;8.820;2022-11-20T04:01:11;2.10;99.90
7384;DHT22;3733;47.994;8.820;2022-11-20T04:03:38;2.10;99.90
7384;DHT22;3733;47.994;8.820;2022-11-20T04:06:06;2.10;99.90
7384;DHT22;3733;47.994;8.820;2022-11-20T04:08:33;2.10;99.90
7384;DHT22;3733;47.994;8.820;2022-11-20T04:11:23;2.00;99.90
7384;DHT22;3733;47.994;8.820;2022-11-20T04:13:52;2.00;99.90
7384;DHT22;3733;47.994;8.820;2022-11-20T04:16:18;2.00;99.90
7384;DHT22;3733;47.994;8.820;2022-11-20T04:18:44;2.00;99.90
7384;DHT22;3733;47.994;8.820;2022-11-20T04:21:10;1.90;99.90
7384;DHT22;3733;47.994;8.820;2022-11-20T04:23:36;1.90;99.90
7384;DHT22;3733;47.994;8.820;2022-11-20T04:26:10;1.90;99.90
7384;DHT22;3733;47.994;8.820;2022-11-20T04:28:36;1.90;99.90
7384;DHT22;3733;47.994;8.820;2022-11-20T04:31:07;1.90;99.90
7384;DHT22;3733;47.994;8.820;2022-11-20T04:33:33;1.90;99.90
7384;DHT22;3733;47.994;8.820;2022-11-20T04:36:09;1.90;99.90
7384;DHT22;3733;47.994;8.820;2022-11-20T04:38:35;2.00;99.90
7384;DHT22;3733;47.994;8.820;2022-11-20T04:41:05;2.00;99.90
7384;DHT22;3733;47.994;8.820;2022-11-20T04:43:32;2.00;99.90
7384;DHT22;3733;47.994;8.820;2022-11-20T04:45:58;2.00;99.90
7384;DHT22;3733;47.994;8.820;2022-11-20T04:48:25;2.00;99.90
7384;DHT22;3733;47.994;8.820;2022-11-20T04:50:51;2.10;99.90
7384;DHT22;3733;47.994;8.820;2022-11-20T04:53:17;2.00;99.90
7384;DHT22;3733;47.994;8.820;2022-11-20T04:55:44;2.10;99.90
7384;DHT22;3733;47.994;8.820;2022-11-20T04:58:09;2.00;99.90
7384;DHT22;3733;47.994;8.820;2022-11-20T05:00:35;2.10;99.90
7384;DHT22;3733;47.994;8.820;2022-11-20T05:03:01;2.10;99.90
7384;DHT22;3733;47.994;8.820;2022-11-20T05:05:27;2.10;99.90
7384;DHT22;3733;47.994;8.820;2022-11-20T05:07:52;2.20;99.90
7384;DHT22;3733;47.994;8.820;2022-11-20T05:10:18;2.20;99.90
7384;DHT22;3733;47.994;8.820;2022-11-20T05:12:43;2.20;99.90
7384;DHT22;3733;47.994;8.820;2022-11-20T05:15:09;2.20;99.90
7384;DHT22;3733;47.994;8.820;2022-11-20T05:17:35;2.30;99.90
7384;DHT22;3733;47.994;8.820;2022-11-20T05:20:00;2.30;99.90
7384;DHT22;3733;47.994;8.820;2022-11-20T05:22:26;2.30;99.90
7384;DHT22;3733;47.994;8.820;2022-11-20T05:24:52;2.30;99.90
7384;DHT22;3733;47.994;8.820;2022-11-20T05:27:18;2.30;99.90
7384;DHT22;3733;47.994;8.820;2022-11-20T05:29:43;2.30;99.90
7384;DHT22;3733;47.994;8.820;2022-11-20T05:32:09;2.30;99.90
7384;DHT22;3733;47.994;8.820;2022-11-20T05:34:35;2.30;99.90
7384;DHT22;3733;47.994;8.820;2022-11-20T05:37:01;2.30;99.90
7384;DHT22;3733;47.994;8.820;2022-11-20T05:39:27;2.30;99.90
7384;DHT22;3733;47.994;8.820;2022-11-20T05:41:53;2.30;99.90
7384;DHT22;3733;47.994;8.820;2022-11-20T05:44:39;2.30;99.90
7384;DHT22;3733;47.994;8.820;2022-11-20T05:47:05;2.40;99.90
7384;DHT22;3733;47.994;8.820;2022-11-20T05:49:31;2.30;99.90
7384;DHT22;3733;47.994;8.820;2022-11-20T05:51:56;2.30;99.90
7384;DHT22;3733;47.994;8.820;2022-11-20T05:54:22;2.30;99.90
7384;DHT22;3733;47.994;8.820;2022-11-20T05:56:47;2.30;99.90
7384;DHT22;3733;47.994;8.820;2022-11-20T05:59:13;2.30;99.90
7384;DHT22;3733;47.994;8.820;2022-11-20T06:01:39;2.20;99.90
7384;DHT22;3733;47.994;8.820;2022-11-20T06:04:04;2.20;99.90
7384;DHT22;3733;47.994;8.820;2022-11-20T06:06:30;2.20;99.90
7384;DHT22;3733;47.994;8.820;2022-11-20T06:08:56;2.20;99.90
7384;DHT22;3733;47.994;8.820;2022-11-20T06:11:21;2.20;99.90
7384;DHT22;3733;47.994;8.820;2022-11-20T06:13:47;2.20;99.90
7384;DHT22;3733;47.994;8.820;2022-11-20T06:16:15;2.10;99.90
7384;DHT22;3733;47.994;8.820;2022-11-20T06:18:41;2.10;99.90
7384;DHT22;3733;47.994;8.820;2022-11-20T06:21:09;2.10;99.90
7384;DHT22;3733;47.994;8.820;2022-11-20T06:23:35;2.10;99.90
7384;DHT22;3733;47.994;8.820;2022-11-20T06:26:03;2.10;99.90
7384;DHT22;3733;47.994;8.820;2022-11-20T06:28:29;2.10;99.90
7384;DHT22;3733;47.994;8.820;2022-11-20T06:30:55;2.20;99.90
7384;DHT22;3733;47.994;8.820;2022-11-20T06:33:21;2.20;99.90
7384;DHT22;3733;47.994;8.820;2022-11-20T06:35:46;2.20;99.90
7384;DHT22;3733;47.994;8.820;2022-11-20T06:38:12;2.20;99.90
7384;DHT22;3733;47.994;8.820;2022-11-20T06:40:40;2.30;99.90
7384;DHT22;3733;47.994;8.820;2022-11-20T06:43:06;2.30;99.90
7384;DHT22;3733;47.994;8.820;2022-11-20T06:45:31;2.30;99.90
7384;DHT22;3733;47.994;8.820;2022-11-20T06:47:57;2.30;99.90
7384;DHT22;3733;47.994;8.820;2022-11-20T06:50:24;2.40;99.90
7384;DHT22;3733;47.994;8.820;2022-11-20T06:52:49;2.40;99.90
7384;DHT22;3733;47.994;8.820;2022-11-20T06:55:15;2.40;99.90
7384;DHT22;3733;47.994;8.820;2022-11-20T06:57:41;2.50;99.90
7384;DHT22;3733;47.994;8.820;2022-11-20T07:00:07;2.50;99.90
7384;DHT22;3733;47.994;8.820;2022-11-20T07:02:32;2.60;99.90
7384;DHT22;3733;47.994;8.820;2022-11-20T07:04:58;2.60;99.90
7384;DHT22;3733;47.994;8.820;2022-11-20T07:07:24;2.60;99.90
7384;DHT22;3733;47.994;8.820;2022-11-20T07:09:49;2.70;99.90
7384;DHT22;3733;47.994;8.820;2022-11-20T07:12:15;2.80;99.90
7384;DHT22;3733;47.994;8.820;2022-11-20T07:14:40;2.80;99.90
7384;DHT22;3733;47.994;8.820;2022-11-20T07:17:06;2.90;99.90
7384;DHT22;3733;47.994;8.820;2022-11-20T07:19:32;2.90;99.90
7384;DHT22;3733;47.994;8.820;2022-11-20T07:21:57;3.00;99.90
7384;DHT22;3733;47.994;8.820;2022-11-20T07:24:23;3.00;99.90
7384;DHT22;3733;47.994;8.820;2022-11-20T07:26:49;3.10;99.90
7384;DHT22;3733;47.994;8.820;2022-11-20T07:29:15;3.20;99.90
7384;DHT22;3733;47.994;8.820;2022-11-20T07:31:42;3.20;99.90
7384;DHT22;3733;47.994;8.820;2022-11-20T07:34:08;3.30;99.90
7384;DHT22;3733;47.994;8.820;2022-11-20T07:36:34;3.40;99.90
7384;DHT22;3733;47.994;8.820;2022-11-20T07:38:59;3.40;99.90
7384;DHT22;3733;47.994;8.820;2022-11-20T07:41:25;3.40;99.90
7384;DHT22;3733;47.994;8.820;2022-11-20T07:43:50;3.40;99.90
7384;DHT22;3733;47.994;8.820;2022-11-20T07:46:16;3.50;99.90
7384;DHT22;3733;47.994;8.820;2022-11-20T07:48:42;3.50;99.90
7384;DHT22;3733;47.994;8.820;2022-11-20T07:51:08;3.50;99.90
7384;DHT22;3733;47.994;8.820;2022-11-20T07:53:33;3.60;99.90
7384;DHT22;3733;47.994;8.820;2022-11-20T07:56:00;3.60;99.90
7384;DHT22;3733;47.994;8.820;2022-11-20T07:58:26;3.60;99.90
7384;DHT22;3733;47.994;8.820;2022-11-20T08:00:53;3.70;99.90
7384;DHT22;3733;47.994;8.820;2022-11-20T08:03:19;3.70;99.90
7384;DHT22;3733;47.994;8.820;2022-11-20T08:05:45;3.80;99.90
7384;DHT22;3733;47.994;8.820;2022-11-20T08:08:10;3.90;99.90
7384;DHT22;3733;47.994;8.820;2022-11-20T08:10:36;4.00;99.90
7384;DHT22;3733;47.994;8.820;2022-11-20T08:13:02;4.00;99.90
7384;DHT22;3733;47.994;8.820;2022-11-20T08:15:50;4.10;99.90
7384;DHT22;3733;47.994;8.820;2022-11-20T08:18:17;4.10;99.90
7384;DHT22;3733;47.994;8.820;2022-11-20T08:20:43;4.10;99.90
7384;DHT22;3733;47.994;8.820;2022-11-20T08:23:08;4.20;99.90
7384;DHT22;3733;47.994;8.820;2022-11-20T08:25:35;4.20;99.90
7384;DHT22;3733;47.994;8.820;2022-11-20T08:28:04;4.30;99.90
7384;DHT22;3733;47.994;8.820;2022-11-20T08:30:30;4.30;99.90
7384;DHT22;3733;47.994;8.820;2022-11-20T08:33:04;4.30;99.90
7384;DHT22;3733;47.994;8.820;2022-11-20T08:35:37;4.40;99.90
7384;DHT22;3733;47.994;8.820;2022-11-20T08:38:04;4.40;99.90
7384;DHT22;3733;47.994;8.820;2022-11-20T08:40:31;4.40;99.90
7384;DHT22;3733;47.994;8.820;2022-11-20T08:42:57;4.50;99.90
7384;DHT22;3733;47.994;8.820;2022-11-20T08:45:22;4.50;99.90
7384;DHT22;3733;47.994;8.820;2022-11-20T08:47:48;4.50;99.90
7384;DHT22;3733;47.994;8.820;2022-11-20T08:50:15;4.50;99.90
7384;DHT22;3733;47.994;8.820;2022-11-20T08:52:41;4.60;99.90
7384;DHT22;3733;47.994;8.820;2022-11-20T08:55:08;4.60;99.90
7384;DHT22;3733;47.994;8.820;2022-11-20T08:57:35;4.70;99.90
7384;DHT22;3733;47.994;8.820;2022-11-20T09:00:02;4.70;99.90
7384;DHT22;3733;47.994;8.820;2022-11-20T09:02:28;4.80;99.90
7384;DHT22;3733;47.994;8.820;2022-11-20T09:04:53;4.90;99.90
7384;DHT22;3733;47.994;8.820;2022-11-20T09:07:19;5.00;99.90
7384;DHT22;3733;47.994;8.820;2022-11-20T09:09:45;5.00;99.90
7384;DHT22;3733;47.994;8.820;2022-11-20T09:12:10;5.10;99.90
7384;DHT22;3733;47.994;8.820;2022-11-20T09:14:36;5.30;99.90
7384;DHT22;3733;47.994;8.820;2022-11-20T09:17:01;5.40;99.90
7384;DHT22;3733;47.994;8.820;2022-11-20T09:19:27;5.40;99.90
7384;DHT22;3733;47.994;8.820;2022-11-20T09:21:53;5.50;99.90
7384;DHT22;3733;47.994;8.820;2022-11-20T09:24:19;5.50;99.90
7384;DHT22;3733;47.994;8.820;2022-11-20T09:26:46;5.50;99.90
7384;DHT22;3733;47.994;8.820;2022-11-20T09:29:11;5.50;99.90
7384;DHT22;3733;47.994;8.820;2022-11-20T09:31:37;5.50;99.90
7384;DHT22;3733;47.994;8.820;2022-11-20T09:34:03;5.50;99.90
7384;DHT22;3733;47.994;8.820;2022-11-20T09:36:28;5.60;99.90
7384;DHT22;3733;47.994;8.820;2022-11-20T09:38:54;5.60;99.90
7384;DHT22;3733;47.994;8.820;2022-11-20T09:41:45;5.60;99.90
7384;DHT22;3733;47.994;8.820;2022-11-20T09:53:12;5.60;99.90
7384;DHT22;3733;47.994;8.820;2022-11-20T09:55:39;5.60;99.90
7384;DHT22;3733;47.994;8.820;2022-11-20T10:00:50;5.60;99.90
7384;DHT22;3733;47.994;8.820;2022-11-20T10:03:42;5.50;99.90
7384;DHT22;3733;47.994;8.820;2022-11-20T10:06:13;5.50;99.90
7384;DHT22;3733;47.994;8.820;2022-11-20T10:08:55;5.50;99.90
7384;DHT22;3733;47.994;8.820;2022-11-20T10:16:52;5.50;99.90
7384;DHT22;3733;47.994;8.820;2022-11-20T10:25:14;5.60;99.90
7384;DHT22;3733;47.994;8.820;2022-11-20T10:30:24;5.60;99.90
7384;DHT22;3733;47.994;8.820;2022-11-20T10:36:00;5.60;99.90
7384;DHT22;3733;47.994;8.820;2022-11-20T10:38:37;5.70;99.90
7384;DHT22;3733;47.994;8.820;2022-11-20T10:41:05;5.70;99.90
7384;DHT22;3733;47.994;8.820;2022-11-20T10:43:54;5.70;99.90
7384;DHT22;3733;47.994;8.820;2022-11-20T10:46:25;5.80;99.90
7384;DHT22;3733;47.994;8.820;2022-11-20T10:48:51;5.80;99.90
7384;DHT22;3733;47.994;8.820;2022-11-20T10:56:47;5.80;99.90
7384;DHT22;3733;47.994;8.820;2022-11-20T11:02:20;5.80;99.90
7384;DHT22;3733;47.994;8.820;2022-11-20T11:04:51;5.80;99.90
7384;DHT22;3733;47.994;8.820;2022-11-20T11:07:39;5.70;99.90
7384;DHT22;3733;47.994;8.820;2022-11-20T11:12:46;5.70;99.90
7384;DHT22;3733;47.994;8.820;2022-11-20T11:15:27;5.60;99.90
7384;DHT22;3733;47.994;8.820;2022-11-20T11:17:53;5.60;99.90
7384;DHT22;3733;47.994;8.820;2022-11-20T11:20:24;5.60;99.90
7384;DHT22;3733;47.994;8.820;2022-11-20T11:22:58;5.60;99.90
7384;DHT22;3733;47.994;8.820;2022-11-20T11:25:33;5.70;99.90
7384;DHT22;3733;47.994;8.820;2022-11-20T11:30:44;5.70;99.90
7384;DHT22;3733;47.994;8.820;2022-11-20T11:33:23;5.70;99.90
7384;DHT22;3733;47.994;8.820;2022-11-20T11:35:57;5.70;99.90
7384;DHT22;3733;47.994;8.820;2022-11-20T11:38:41;5.70;99.90
7384;DHT22;3733;47.994;8.820;2022-11-20T11:41:16;5.80;99.90
7384;DHT22;3733;47.994;8.820;2022-11-20T11:43:54;5.80;99.90
7384;DHT22;3733;47.994;8.820;2022-11-20T11:46:43;5.90;99.90
7384;DHT22;3733;47.994;8.820;2022-11-20T11:49:17;6.00;99.90
7384;DHT22;3733;47.994;8.820;2022-11-20T11:57:29;6.20;99.90
7384;DHT22;3733;47.994;8.820;2022-11-20T12:00:25;6.40;99.90
7384;DHT22;3733;47.994;8.820;2022-11-20T12:03:00;6.60;99.90
7384;DHT22;3733;47.994;8.820;2022-11-20T12:11:05;6.80;99.90
7384;DHT22;3733;47.994;8.820;2022-11-20T12:13:51;6.80;99.90
7384;DHT22;3733;47.994;8.820;2022-11-20T12:16:19;6.70;99.90
7384;DHT22;3733;47.994;8.820;2022-11-20T12:18:49;6.60;99.90
7384;DHT22;3733;47.994;8.820;2022-11-20T12:40:33;6.90;99.90
7384;DHT22;3733;47.994;8.820;2022-11-20T12:48:51;7.20;99.90
7384;DHT22;3733;47.994;8.820;2022-11-20T12:54:21;7.30;99.90
7384;DHT22;3733;47.994;8.820;2022-11-20T13:07:35;7.10;99.90
7384;DHT22;3733;47.994;8.820;2022-11-20T13:10:02;7.10;99.90
7384;DHT22;3733;47.994;8.820;2022-11-20T13:12:43;7.00;99.90
7384;DHT22;3733;47.994;8.820;2022-11-20T13:20:19;6.80;99.90
7384;DHT22;3733;47.994;8.820;2022-11-20T13:22:47;6.70;99.90
7384;DHT22;3733;47.994;8.820;2022-11-20T13:25:30;6.60;99.90
7384;DHT22;3733;47.994;8.820;2022-11-20T13:27:58;6.60;99.90
7384;DHT22;3733;47.994;8.820;2022-11-20T13:30:28;6.50;99.90
7384;DHT22;3733;47.994;8.820;2022-11-20T13:32:57;6.60;99.90
7384;DHT22;3733;47.994;8.820;2022-11-20T13:35:31;6.70;99.90
7384;DHT22;3733;47.994;8.820;2022-11-20T13:40:55;7.00;99.90
7384;DHT22;3733;47.994;8.820;2022-11-20T13:46:06;7.10;99.90
7384;DHT22;3733;47.994;8.820;2022-11-20T13:56:24;6.70;99.90
7384;DHT22;3733;47.994;8.820;2022-11-20T14:01:55;6.50;99.90
7384;DHT22;3733;47.994;8.820;2022-11-20T14:04:30;6.40;99.90
7384;DHT22;3733;47.994;8.820;2022-11-20T14:06:58;6.50;99.90
7384;DHT22;3733;47.994;8.820;2022-11-20T14:09:27;6.50;99.90
7384;DHT22;3733;47.994;8.820;2022-11-20T14:11:53;6.60;99.90
7384;DHT22;3733;47.994;8.820;2022-11-20T14:14:24;6.60;99.90
7384;DHT22;3733;47.994;8.820;2022-11-20T14:16:51;6.60;99.90
7384;DHT22;3733;47.994;8.820;2022-11-20T14:21:47;6.50;99.90
7384;DHT22;3733;47.994;8.820;2022-11-20T14:24:14;6.50;99.90
7384;DHT22;3733;47.994;8.820;2022-11-20T14:26:44;6.50;99.90
7384;DHT22;3733;47.994;8.820;2022-11-20T14:29:17;6.50;99.90
7384;DHT22;3733;47.994;8.820;2022-11-20T14:31:45;6.50;99.90
7384;DHT22;3733;47.994;8.820;2022-11-20T14:34:22;6.50;99.90
7384;DHT22;3733;47.994;8.820;2022-11-20T14:37:00;6.50;99.90
7384;DHT22;3733;47.994;8.820;2022-11-20T14:39:34;6.50;99.90
7384;DHT22;3733;47.994;8.820;2022-11-20T14:42:01;6.50;99.90
7384;DHT22;3733;47.994;8.820;2022-11-20T14:44:30;6.40;99.90
7384;DHT22;3733;47.994;8.820;2022-11-20T14:46:57;6.40;99.90
7384;DHT22;3733;47.994;8.820;2022-11-20T14:49:25;6.40;99.90
7384;DHT22;3733;47.994;8.820;2022-11-20T14:52:02;6.30;99.90
7384;DHT22;3733;47.994;8.820;2022-11-20T14:54:28;6.40;99.90
7384;DHT22;3733;47.994;8.820;2022-11-20T14:57:00;6.30;99.90
7384;DHT22;3733;47.994;8.820;2022-11-20T14:59:28;6.30;99.50
7384;DHT22;3733;47.994;8.820;2022-11-20T15:02:03;6.30;99.90
7384;DHT22;3733;47.994;8.820;2022-11-20T15:04:29;6.30;99.90
7384;DHT22;3733;47.994;8.820;2022-11-20T15:06:56;6.20;99.90
7384;DHT22;3733;47.994;8.820;2022-11-20T15:09:22;6.20;99.90
7384;DHT22;3733;47.994;8.820;2022-11-20T15:11:59;6.20;99.90
7384;DHT22;3733;47.994;8.820;2022-11-20T15:14:27;6.10;99.90
7384;DHT22;3733;47.994;8.820;2022-11-20T15:16:53;6.00;99.90
7384;DHT22;3733;47.994;8.820;2022-11-20T15:19:21;6.00;99.90
7384;DHT22;3733;47.994;8.820;2022-11-20T15:21:47;6.00;99.90
7384;DHT22;3733;47.994;8.820;2022-11-20T15:24:13;5.90;99.90
7384;DHT22;3733;47.994;8.820;2022-11-20T15:26:39;5.90;99.90
7384;DHT22;3733;47.994;8.820;2022-11-20T15:29:08;5.80;99.90
7384;DHT22;3733;47.994;8.820;2022-11-20T15:31:36;5.80;99.90
7384;DHT22;3733;47.994;8.820;2022-11-20T15:34:02;5.80;99.90
7384;DHT22;3733;47.994;8.820;2022-11-20T15:36:30;5.80;99.90
7384;DHT22;3733;47.994;8.820;2022-11-20T15:38:56;5.70;99.90
7384;DHT22;3733;47.994;8.820;2022-11-20T15:41:21;5.70;99.90
7384;DHT22;3733;47.994;8.820;2022-11-20T15:43:47;5.60;99.90
7384;DHT22;3733;47.994;8.820;2022-11-20T15:46:15;5.60;99.90
7384;DHT22;3733;47.994;8.820;2022-11-20T15:48:44;5.60;99.90
7384;DHT22;3733;47.994;8.820;2022-11-20T15:53:40;5.50;99.90
7384;DHT22;3733;47.994;8.820;2022-11-20T15:56:11;5.40;99.90
7384;DHT22;3733;47.994;8.820;2022-11-20T15:58:36;5.40;99.90
7384;DHT22;3733;47.994;8.820;2022-11-20T16:01:02;5.40;99.90
7384;DHT22;3733;47.994;8.820;2022-11-20T16:03:28;5.40;99.90
7384;DHT22;3733;47.994;8.820;2022-11-20T16:05:53;5.40;99.90
7384;DHT22;3733;47.994;8.820;2022-11-20T16:08:19;5.30;99.90
7384;DHT22;3733;47.994;8.820;2022-11-20T16:10:44;5.30;99.90
7384;DHT22;3733;47.994;8.820;2022-11-20T16:13:15;5.20;99.90
7384;DHT22;3733;47.994;8.820;2022-11-20T16:16:02;5.20;99.90
7384;DHT22;3733;47.994;8.820;2022-11-20T16:18:30;5.20;99.90
7384;DHT22;3733;47.994;8.820;2022-11-20T16:20:56;5.10;99.90
7384;DHT22;3733;47.994;8.820;2022-11-20T16:23:22;5.10;99.90
7384;DHT22;3733;47.994;8.820;2022-11-20T16:25:49;5.10;99.90
7384;DHT22;3733;47.994;8.820;2022-11-20T16:28:15;5.10;99.90
7384;DHT22;3733;47.994;8.820;2022-11-20T16:30:41;5.10;99.90
7384;DHT22;3733;47.994;8.820;2022-11-20T16:33:14;5.00;99.90
7384;DHT22;3733;47.994;8.820;2022-11-20T16:35:41;5.00;99.90
7384;DHT22;3733;47.994;8.820;2022-11-20T16:38:06;5.00;99.90
7384;DHT22;3733;47.994;8.820;2022-11-20T16:40:32;5.00;99.90
7384;DHT22;3733;47.994;8.820;2022-11-20T16:43:07;5.00;99.90
7384;DHT22;3733;47.994;8.820;2022-11-20T16:45:33;5.00;99.90
7384;DHT22;3733;47.994;8.820;2022-11-20T16:47:59;4.90;99.90
7384;DHT22;3733;47.994;8.820;2022-11-20T16:50:25;4.90;99.90
7384;DHT22;3733;47.994;8.820;2022-11-20T16:52:50;4.90;99.90
7384;DHT22;3733;47.994;8.820;2022-11-20T16:55:16;4.90;99.90
7384;DHT22;3733;47.994;8.820;2022-11-20T16:57:41;4.90;99.90
7384;DHT22;3733;47.994;8.820;2022-11-20T17:00:08;4.80;99.90
7384;DHT22;3733;47.994;8.820;2022-11-20T17:02:33;4.80;99.90
7384;DHT22;3733;47.994;8.820;2022-11-20T17:04:59;4.80;99.90
7384;DHT22;3733;47.994;8.820;2022-11-20T17:07:24;4.80;99.90
7384;DHT22;3733;47.994;8.820;2022-11-20T17:09:50;4.70;99.90
7384;DHT22;3733;47.994;8.820;2022-11-20T17:12:16;4.70;99.90
7384;DHT22;3733;47.994;8.820;2022-11-20T17:14:42;4.70;99.90
7384;DHT22;3733;47.994;8.820;2022-11-20T17:17:08;4.60;99.90
7384;DHT22;3733;47.994;8.820;2022-11-20T17:19:33;4.70;99.90
7384;DHT22;3733;47.994;8.820;2022-11-20T17:21:59;4.70;99.90
7384;DHT22;3733;47.994;8.820;2022-11-20T17:24:25;4.70;99.90
7384;DHT22;3733;47.994;8.820;2022-11-20T17:26:51;4.70;99.90
7384;DHT22;3733;47.994;8.820;2022-11-20T17:29:18;4.70;99.90
7384;DHT22;3733;47.994;8.820;2022-11-20T17:31:49;4.70;99.90
7384;DHT22;3733;47.994;8.820;2022-11-20T17:34:15;4.70;99.90
7384;DHT22;3733;47.994;8.820;2022-11-20T17:36:41;4.70;99.90
7384;DHT22;3733;47.994;8.820;2022-11-20T17:39:10;4.60;99.90
7384;DHT22;3733;47.994;8.820;2022-11-20T17:41:36;4.70;99.90
7384;DHT22;3733;47.994;8.820;2022-11-20T17:44:02;4.60;99.90
7384;DHT22;3733;47.994;8.820;2022-11-20T17:46:31;4.70;99.90
7384;DHT22;3733;47.994;8.820;2022-11-20T17:48:58;4.60;99.90
7384;DHT22;3733;47.994;8.820;2022-11-20T17:51:26;4.70;99.90
7384;DHT22;3733;47.994;8.820;2022-11-20T17:53:55;4.70;99.90
7384;DHT22;3733;47.994;8.820;2022-11-20T17:56:22;4.70;99.90
7384;DHT22;3733;47.994;8.820;2022-11-20T17:59:08;4.70;99.90
7384;DHT22;3733;47.994;8.820;2022-11-20T18:01:35;4.70;99.90
7384;DHT22;3733;47.994;8.820;2022-11-20T18:04:02;4.70;99.90
7384;DHT22;3733;47.994;8.820;2022-11-20T18:06:29;4.70;99.90
7384;DHT22;3733;47.994;8.820;2022-11-20T18:08:58;4.60;99.90
7384;DHT22;3733;47.994;8.820;2022-11-20T18:11:32;4.60;99.90
7384;DHT22;3733;47.994;8.820;2022-11-20T18:14:00;4.60;99.90
7384;DHT22;3733;47.994;8.820;2022-11-20T18:16:47;4.60;99.90
7384;DHT22;3733;47.994;8.820;2022-11-20T18:19:15;4.60;99.90
7384;DHT22;3733;47.994;8.820;2022-11-20T18:21:41;4.60;99.90
7384;DHT22;3733;47.994;8.820;2022-11-20T18:24:08;4.60;99.90
7384;DHT22;3733;47.994;8.820;2022-11-20T18:26:34;4.60;99.90
7384;DHT22;3733;47.994;8.820;2022-11-20T18:29:00;4.60;99.90